createdAt,value
2024-03-12T04:02:45.281Z,91.48
2024-03-12T04:05:13.568Z,92.37
2024-03-12T04:07:42.019Z,91.94
2024-03-12T04:10:11.633Z,92.76
2024-03-12T04:12:40.456Z,92.20
2024-03-12T04:15:07.604Z,92.09
2024-03-12T04:17:34.262Z,92.67
2024-03-12T04:20:02.149Z,92.74
2024-03-12T04:22:29.692Z,93.53
2024-03-12T04:24:56.223Z,92.93
2024-03-12T04:27:22.812Z,93.41
2024-03-12T04:29:49.340Z,93.31
2024-03-12T04:32:16.295Z,93.25
2024-03-12T04:34:42.958Z,93.07
2024-03-12T04:37:13.752Z,92.99
2024-03-12T04:39:40.467Z,92.63
2024-03-12T04:42:07.807Z,93.07
2024-03-12T04:44:34.797Z,93.37
2024-03-12T04:47:01.645Z,92.72
2024-03-12T04:49:28.593Z,92.58
2024-03-12T04:51:55.151Z,92.66
2024-03-12T04:54:23.009Z,92.95
2024-03-12T04:56:51.928Z,93.18
2024-03-12T04:59:19.016Z,93.03
2024-03-12T05:01:50.562Z,93.41
2024-03-12T05:04:22.505Z,93.26
2024-03-12T05:06:50.427Z,92.85
2024-03-12T05:09:19.222Z,93.07
2024-03-12T05:11:48.709Z,92.11
2024-03-12T05:14:15.189Z,92.50
2024-03-12T05:16:42.616Z,92.23
2024-03-12T05:19:11.992Z,92.81
2024-03-12T05:21:38.776Z,92.45
2024-03-12T05:24:05.987Z,93.00
2024-03-12T05:26:33.162Z,92.22
2024-03-12T05:29:01.010Z,92.32
2024-03-12T05:31:39.342Z,92.49
2024-03-12T05:34:28.532Z,92.95
2024-03-12T05:37:04.743Z,93.05
2024-03-12T05:40:01.590Z,92.52
2024-03-12T05:42:47.044Z,91.97
2024-03-12T05:45:34.098Z,92.21
2024-03-12T05:48:13.426Z,92.95
2024-03-12T05:50:41.931Z,91.60
2024-03-12T05:53:08.547Z,91.17
2024-03-12T05:55:35.582Z,92.35
2024-03-12T05:58:02.371Z,91.71
2024-03-12T06:00:31.160Z,91.51
2024-03-12T06:02:57.663Z,91.57
2024-03-12T06:05:24.189Z,91.98
2024-03-12T06:07:50.774Z,92.18
2024-03-12T06:10:20.202Z,92.08
2024-03-12T06:12:46.901Z,92.50
2024-03-12T06:15:13.485Z,92.41
2024-03-12T06:17:41.334Z,92.10
2024-03-12T06:20:11.480Z,91.88
2024-03-12T06:22:38.303Z,92.49
2024-03-12T06:25:06.789Z,92.49
2024-03-12T06:27:33.792Z,92.77
2024-03-12T06:30:00.644Z,93.13
2024-03-12T06:32:32.266Z,93.04
2024-03-12T06:35:00.232Z,92.36
2024-03-12T06:37:29.762Z,92.72
2024-03-12T06:39:56.471Z,92.76
2024-03-12T06:42:27.381Z,92.56
2024-03-12T06:44:53.976Z,93.06
2024-03-12T06:47:20.446Z,91.92
2024-03-12T06:49:48.713Z,92.07
2024-03-12T06:52:16.811Z,91.17
2024-03-12T06:54:45.140Z,91.38
2024-03-12T06:57:15.014Z,91.13
2024-03-12T06:59:50.960Z,90.77
2024-03-12T07:02:21.525Z,90.67
2024-03-12T07:04:52.071Z,91.20
2024-03-12T07:07:20.956Z,91.28
2024-03-12T07:09:48.170Z,91.64
2024-03-12T07:12:19.461Z,90.32
2024-03-12T07:14:55.570Z,90.15
2024-03-12T07:17:22.922Z,91.19
2024-03-12T07:19:50.590Z,91.24
2024-03-12T07:22:20.376Z,90.81
2024-03-12T07:24:48.532Z,90.50
2024-03-12T07:27:15.252Z,90.69
2024-03-12T07:29:44.404Z,90.50
2024-03-12T07:32:11.057Z,89.93
2024-03-12T07:34:40.322Z,89.97
2024-03-12T07:37:07.913Z,90.10
2024-03-12T07:39:37.389Z,90.08
2024-03-12T07:42:13.594Z,90.28
2024-03-12T07:44:42.023Z,90.70
2024-03-12T07:47:11.110Z,90.64
2024-03-12T07:49:38.251Z,90.18
2024-03-12T07:52:07.357Z,90.41
2024-03-12T07:54:34.329Z,90.20
2024-03-12T07:57:00.991Z,90.41
2024-03-12T07:59:32.432Z,90.79
2024-03-12T08:01:59.201Z,90.84
2024-03-12T08:04:28.655Z,89.97
2024-03-12T08:06:55.671Z,90.79
2024-03-12T08:09:22.425Z,90.85
2024-03-12T08:11:49.818Z,90.43
2024-03-12T08:14:17.828Z,90.30
2024-03-12T08:16:45.949Z,90.31
2024-03-12T08:19:13.824Z,90.31
2024-03-12T08:21:40.703Z,90.59
2024-03-12T08:24:08.757Z,90.29
2024-03-12T08:26:35.328Z,91.09
2024-03-12T08:29:03.006Z,90.02
2024-03-12T08:31:33.435Z,89.69
2024-03-12T08:34:06.388Z,89.73
2024-03-12T08:36:34.298Z,90.31
2024-03-12T08:39:00.900Z,90.29
2024-03-12T08:41:27.442Z,89.76
2024-03-12T08:43:54.054Z,89.86
2024-03-12T08:46:20.828Z,89.94
2024-03-12T08:48:47.493Z,90.09
2024-03-12T08:51:15.608Z,89.74
2024-03-12T08:53:42.324Z,89.74
2024-03-12T08:56:09.010Z,89.71
2024-03-12T08:58:35.509Z,88.75
2024-03-12T09:01:02.311Z,89.47
2024-03-12T09:03:30.235Z,89.52
2024-03-12T09:05:56.943Z,90.12
2024-03-12T09:08:25.283Z,88.79
2024-03-12T09:10:52.050Z,87.93
2024-03-12T09:13:20.462Z,89.32
2024-03-12T09:15:49.523Z,88.73
2024-03-12T09:18:23.546Z,88.67
2024-03-12T09:20:52.884Z,88.57
2024-03-12T09:23:20.011Z,88.54
2024-03-12T09:25:48.121Z,88.55
2024-03-12T09:28:17.641Z,88.23
2024-03-12T09:30:44.387Z,87.11
2024-03-12T09:33:11.896Z,87.25
2024-03-12T09:35:38.874Z,87.22
2024-03-12T09:38:05.544Z,86.01
2024-03-12T09:40:33.832Z,85.85
2024-03-12T09:43:04.514Z,84.29
2024-03-12T09:45:31.726Z,83.77
2024-03-12T09:47:58.333Z,83.83
2024-03-12T09:50:26.159Z,83.05
2024-03-12T09:52:53.530Z,82.71
2024-03-12T09:55:22.636Z,80.59
2024-03-12T09:57:49.283Z,80.44
2024-03-12T10:00:23.679Z,78.83
2024-03-12T10:02:50.904Z,78.01
2024-03-12T10:05:22.639Z,76.65
2024-03-12T10:08:14.129Z,76.54
2024-03-12T10:10:42.404Z,75.90
2024-03-12T10:13:15.733Z,76.69
2024-03-12T10:15:51.677Z,74.31
2024-03-12T10:18:19.622Z,75.09
2024-03-12T10:20:46.990Z,74.44
2024-03-12T10:23:16.506Z,74.51
2024-03-12T10:25:45.683Z,74.46
2024-03-12T10:28:15.437Z,73.17
2024-03-12T10:30:43.106Z,73.26
2024-03-12T10:33:14.442Z,74.30
2024-03-12T10:35:45.195Z,74.62
2024-03-12T10:38:14.619Z,74.18
2024-03-12T10:40:42.572Z,73.70
2024-03-12T10:43:09.676Z,74.96
2024-03-12T10:45:37.024Z,74.18
2024-03-12T10:48:07.176Z,75.92
2024-03-12T10:50:36.327Z,75.72
2024-03-12T10:53:03.207Z,75.89
2024-03-12T10:55:34.057Z,76.77
2024-03-12T10:58:05.445Z,75.54
2024-03-12T11:00:32.560Z,74.29
2024-03-12T11:03:00.423Z,73.35
2024-03-12T11:05:33.584Z,73.43
2024-03-12T11:08:03.407Z,72.21
2024-03-12T11:10:33.787Z,72.33
2024-03-12T11:13:01.814Z,73.38
2024-03-12T11:15:28.733Z,72.46
2024-03-12T11:17:56.287Z,72.69
2024-03-12T11:20:28.144Z,73.09
2024-03-12T11:23:01.104Z,72.83
2024-03-12T11:25:33.681Z,73.46
2024-03-12T11:28:23.409Z,72.50
2024-03-12T11:31:01.918Z,72.80
2024-03-12T11:33:42.421Z,72.26
2024-03-12T11:36:09.762Z,71.26
2024-03-12T11:38:36.299Z,70.94
2024-03-12T11:41:04.635Z,71.40
2024-03-12T11:43:39.242Z,72.31
2024-03-12T11:46:08.038Z,70.91
2024-03-12T11:48:36.778Z,71.33
2024-03-12T11:51:10.153Z,70.20
2024-03-12T11:53:37.628Z,69.66
2024-03-12T11:56:17.662Z,68.71
2024-03-12T11:58:49.722Z,67.10
2024-03-12T12:01:17.610Z,67.63
2024-03-12T12:03:45.152Z,67.33
2024-03-12T12:06:12.112Z,66.97
2024-03-12T12:08:46.016Z,67.05
2024-03-12T12:11:21.891Z,65.85
2024-03-12T12:13:49.003Z,65.40
2024-03-12T12:16:17.388Z,65.69
2024-03-12T12:18:45.364Z,65.72
2024-03-12T12:21:13.505Z,65.74
2024-03-12T12:23:40.674Z,65.30
2024-03-12T12:26:13.092Z,66.28
2024-03-12T12:28:41.376Z,65.81
2024-03-12T12:31:12.813Z,65.59
2024-03-12T12:33:42.199Z,65.50
2024-03-12T12:36:10.818Z,65.65
2024-03-12T12:38:38.076Z,65.73
2024-03-12T12:41:08.047Z,65.24
2024-03-12T12:43:34.859Z,64.94
2024-03-12T12:46:07.094Z,63.86
2024-03-12T12:48:40.054Z,64.03
2024-03-12T12:51:08.762Z,62.91
2024-03-12T12:53:38.014Z,63.80
2024-03-12T12:56:04.740Z,64.75
2024-03-12T12:58:34.832Z,64.06
2024-03-12T13:01:05.232Z,61.91
2024-03-12T13:03:39.057Z,60.98
2024-03-12T13:06:19.969Z,62.10
2024-03-12T13:08:48.322Z,64.00
2024-03-12T13:11:19.597Z,63.66
2024-03-12T13:13:49.055Z,63.74
2024-03-12T13:16:19.112Z,63.80
2024-03-12T13:18:47.472Z,63.36
2024-03-12T13:21:15.533Z,62.83
2024-03-12T13:23:42.207Z,62.01
2024-03-12T13:26:09.004Z,61.55
2024-03-12T13:28:36.227Z,60.95
2024-03-12T13:31:05.783Z,61.75
2024-03-12T13:33:33.799Z,61.79
2024-03-12T13:36:00.681Z,62.32
2024-03-12T13:38:28.216Z,65.62
2024-03-12T13:40:58.081Z,64.19
2024-03-12T13:43:27.123Z,63.81
2024-03-12T13:45:56.192Z,63.06
2024-03-12T13:48:25.059Z,65.28
2024-03-12T13:50:57.329Z,64.20
2024-03-12T13:53:24.395Z,64.51
2024-03-12T13:55:50.972Z,65.34
2024-03-12T13:58:17.839Z,65.18
2024-03-12T14:00:45.569Z,64.32
2024-03-12T14:03:12.494Z,65.59
2024-03-12T14:05:39.202Z,64.41
2024-03-12T14:08:07.296Z,65.76
2024-03-12T14:10:33.932Z,65.30
2024-03-12T14:13:00.509Z,64.94
2024-03-12T14:15:27.033Z,65.45
2024-03-12T14:17:54.039Z,65.49
2024-03-12T14:20:22.710Z,65.09
2024-03-12T14:22:49.263Z,65.61
2024-03-12T14:25:17.589Z,64.99
2024-03-12T14:27:44.910Z,66.09
2024-03-12T14:30:14.201Z,65.62
2024-03-12T14:32:40.614Z,65.60
2024-03-12T14:35:07.755Z,66.17
2024-03-12T14:37:34.279Z,65.20
2024-03-12T14:40:08.707Z,63.44
2024-03-12T14:42:38.810Z,62.73
2024-03-12T14:45:06.096Z,61.29
2024-03-12T14:47:33.431Z,62.46
2024-03-12T14:50:00.011Z,62.26
2024-03-12T14:52:26.661Z,62.14
2024-03-12T14:54:54.814Z,60.71
2024-03-12T14:57:21.563Z,61.54
2024-03-12T14:59:49.663Z,62.59
2024-03-12T15:02:16.328Z,61.69
2024-03-12T15:04:43.335Z,61.78
2024-03-12T15:07:10.772Z,63.13
2024-03-12T15:09:38.881Z,62.12
2024-03-12T15:12:06.515Z,63.08
2024-03-12T15:14:33.092Z,62.54
2024-03-12T15:17:00.944Z,63.30
2024-03-12T15:19:28.947Z,63.50
2024-03-12T15:21:55.592Z,64.07
2024-03-12T15:24:22.546Z,63.92
2024-03-12T15:26:50.025Z,64.12
2024-03-12T15:29:18.315Z,64.19
2024-03-12T15:31:46.881Z,64.59
2024-03-12T15:34:15.025Z,64.70
2024-03-12T15:36:45.467Z,64.58
2024-03-12T15:39:12.468Z,64.82
2024-03-12T15:41:39.037Z,65.94
2024-03-12T15:44:07.465Z,65.12
2024-03-12T15:46:34.185Z,65.17
2024-03-12T15:49:01.640Z,66.56
2024-03-12T15:51:29.918Z,65.97
2024-03-12T15:53:56.532Z,65.93
2024-03-12T15:56:24.192Z,66.30
2024-03-12T15:58:52.064Z,66.75
2024-03-12T16:01:19.050Z,67.25
2024-03-12T16:03:45.786Z,67.79
2024-03-12T16:06:15.048Z,68.09
2024-03-12T16:08:47.833Z,68.21
2024-03-12T16:11:16.427Z,67.43
2024-03-12T16:13:43.156Z,67.42
2024-03-12T16:16:09.848Z,67.40
2024-03-12T16:18:36.426Z,67.96
2024-03-12T16:21:03.165Z,68.31
2024-03-12T16:23:29.714Z,68.84
2024-03-12T16:25:57.757Z,68.62
2024-03-12T16:28:24.318Z,68.62
2024-03-12T16:30:53.177Z,69.34
2024-03-12T16:33:19.727Z,68.76
2024-03-12T16:35:46.295Z,69.59
2024-03-12T16:38:13.767Z,70.06
2024-03-12T16:40:40.722Z,69.40
2024-03-12T16:43:09.044Z,69.06
2024-03-12T16:45:35.676Z,69.11
2024-03-12T16:48:05.638Z,69.62
2024-03-12T16:50:32.367Z,69.08
2024-03-12T16:52:59.742Z,68.92
2024-03-12T16:55:26.840Z,69.08
2024-03-12T16:57:53.902Z,69.18
2024-03-12T17:00:22.498Z,69.66
2024-03-12T17:02:49.532Z,70.08
2024-03-12T17:05:19.819Z,70.33
2024-03-12T17:07:49.847Z,71.17
2024-03-12T17:10:17.396Z,72.13
2024-03-12T17:12:45.092Z,72.17
2024-03-12T17:15:15.111Z,73.07
2024-03-12T17:17:43.556Z,73.94
2024-03-12T17:20:11.214Z,73.98
2024-03-12T17:22:38.883Z,74.96
2024-03-12T17:25:06.570Z,76.38
2024-03-12T17:27:34.797Z,76.32
2024-03-12T17:30:01.930Z,77.32
2024-03-12T17:32:29.330Z,77.14
2024-03-12T17:35:00.297Z,78.49
2024-03-12T17:37:35.058Z,78.83
2024-03-12T17:40:02.040Z,80.12
2024-03-12T17:42:30.177Z,80.80
2024-03-12T17:44:57.155Z,81.45
2024-03-12T17:47:25.483Z,82.07
2024-03-12T17:49:54.344Z,82.91
2024-03-12T17:52:23.237Z,81.81
2024-03-12T17:54:50.652Z,82.06
2024-03-12T17:57:18.311Z,82.51
2024-03-12T17:59:45.877Z,83.04
2024-03-12T18:02:15.767Z,82.79
2024-03-12T18:04:42.921Z,83.84
2024-03-12T18:07:21.889Z,84.04
2024-03-12T18:09:52.799Z,84.39
2024-03-12T18:12:19.391Z,84.98
2024-03-12T18:14:45.943Z,84.93
2024-03-12T18:17:12.486Z,85.71
2024-03-12T18:19:40.520Z,85.97
2024-03-12T18:22:07.381Z,85.76
2024-03-12T18:24:34.112Z,85.53
2024-03-12T18:27:01.922Z,85.44
2024-03-12T18:29:28.651Z,85.61
2024-03-12T18:31:57.990Z,85.23
2024-03-12T18:34:24.460Z,84.85
2024-03-12T18:36:56.968Z,85.38
2024-03-12T18:39:23.877Z,85.05
2024-03-12T18:41:50.579Z,85.28
2024-03-12T18:44:18.408Z,86.05
2024-03-12T18:46:44.905Z,85.86
2024-03-12T18:49:13.031Z,86.07
2024-03-12T18:51:40.552Z,86.09
2024-03-12T18:54:08.708Z,86.74
2024-03-12T18:56:35.670Z,87.36
2024-03-12T18:59:02.867Z,87.23
2024-03-12T19:01:32.208Z,87.71
2024-03-12T19:03:58.798Z,87.09
2024-03-12T19:06:27.293Z,87.14
2024-03-12T19:08:54.947Z,86.77
2024-03-12T19:11:21.883Z,87.28
2024-03-12T19:13:49.145Z,87.69
2024-03-12T19:16:20.156Z,87.56
2024-03-12T19:18:50.422Z,87.67
2024-03-12T19:21:17.874Z,87.47
2024-03-12T19:23:49.309Z,87.69
2024-03-12T19:26:16.233Z,88.15
2024-03-12T19:28:43.096Z,88.05
2024-03-12T19:31:10.508Z,87.92
2024-03-12T19:33:38.295Z,87.54
2024-03-12T19:36:07.486Z,88.17
2024-03-12T19:38:34.592Z,88.74
2024-03-12T19:41:02.481Z,88.52
2024-03-12T19:43:30.006Z,88.29
2024-03-12T19:45:59.567Z,88.55
2024-03-12T19:48:28.212Z,88.54
2024-03-12T19:50:55.862Z,88.16
2024-03-12T19:53:23.736Z,88.45
2024-03-12T19:55:52.097Z,88.74
2024-03-12T19:58:19.529Z,88.76
2024-03-12T20:00:47.963Z,88.75
2024-03-12T20:03:16.361Z,89.30
2024-03-12T20:05:43.249Z,89.36
2024-03-12T20:08:10.506Z,89.83
2024-03-12T20:10:38.781Z,90.27
2024-03-12T20:13:06.626Z,90.20
2024-03-12T20:15:33.816Z,90.42
2024-03-12T20:18:01.943Z,90.79
2024-03-12T20:20:29.038Z,90.38
2024-03-12T20:22:56.476Z,90.73
2024-03-12T20:25:23.627Z,90.93
2024-03-12T20:27:55.155Z,90.99
2024-03-12T20:30:28.011Z,91.08
2024-03-12T20:32:58.500Z,91.44
2024-03-12T20:35:25.140Z,90.64
2024-03-12T20:37:51.689Z,90.75
2024-03-12T20:40:20.046Z,91.10
2024-03-12T20:42:49.460Z,90.82
2024-03-12T20:45:21.629Z,90.69
2024-03-12T20:47:48.828Z,91.63
2024-03-12T20:50:18.309Z,91.59
2024-03-12T20:52:44.737Z,91.13
2024-03-12T20:55:11.944Z,90.92
2024-03-12T20:57:39.589Z,90.56
2024-03-12T21:00:17.696Z,90.71
2024-03-12T21:02:46.938Z,90.85
2024-03-12T21:05:13.664Z,90.86
2024-03-12T21:07:40.341Z,91.26
2024-03-12T21:10:08.187Z,90.93
2024-03-12T21:12:37.769Z,90.99
2024-03-12T21:15:07.656Z,90.99
2024-03-12T21:17:34.627Z,91.29
2024-03-12T21:20:12.490Z,91.20
2024-03-12T21:22:39.148Z,92.08
2024-03-12T21:25:07.672Z,91.59
2024-03-12T21:27:34.326Z,91.65
2024-03-12T21:30:02.244Z,92.19
2024-03-12T21:32:28.816Z,91.63
2024-03-12T21:34:55.396Z,91.52
2024-03-12T21:37:23.394Z,91.68
2024-03-12T21:39:50.007Z,91.96
2024-03-12T21:42:17.399Z,92.44
2024-03-12T21:44:45.092Z,92.50
2024-03-12T21:47:11.678Z,92.80
2024-03-12T21:49:38.215Z,92.57
2024-03-12T21:52:05.663Z,92.59
2024-03-12T21:54:33.602Z,92.47
2024-03-12T21:57:00.844Z,92.16
2024-03-12T21:59:27.349Z,92.31
2024-03-12T22:01:54.192Z,92.44
2024-03-12T22:04:23.661Z,93.19
2024-03-12T22:06:50.830Z,92.92
2024-03-12T22:09:17.594Z,93.31
2024-03-12T22:11:46.396Z,92.66
2024-03-12T22:14:12.959Z,92.86
2024-03-12T22:16:42.522Z,92.93
2024-03-12T22:19:09.737Z,93.28
2024-03-12T22:21:37.391Z,93.06
2024-03-12T22:24:05.328Z,92.99
2024-03-12T22:26:31.967Z,93.11
2024-03-12T22:28:59.815Z,92.79
2024-03-12T22:31:26.328Z,93.28
2024-03-12T22:33:52.888Z,92.82
2024-03-12T22:36:19.385Z,92.84
2024-03-12T22:38:46.507Z,93.33
2024-03-12T22:41:14.169Z,92.96
2024-03-12T22:43:41.316Z,92.89
2024-03-12T22:46:11.628Z,93.44
2024-03-12T22:48:39.324Z,92.84
2024-03-12T22:51:07.757Z,92.74
2024-03-12T22:53:34.466Z,92.80
2024-03-12T22:56:02.314Z,92.85
2024-03-12T22:58:29.817Z,93.08
2024-03-12T23:00:57.732Z,93.26
2024-03-12T23:03:26.357Z,93.00
2024-03-12T23:05:53.906Z,92.83
2024-03-12T23:08:21.865Z,92.94
2024-03-12T23:10:48.677Z,92.93
2024-03-12T23:13:16.761Z,92.81
